createdAt,value
2022-12-11T00:02:46.126Z,100.00
2022-12-11T00:05:47.777Z,100.00
2022-12-11T00:08:54.085Z,100.00
2022-12-11T00:11:55.733Z,100.00
2022-12-11T00:14:57.602Z,100.00
2022-12-11T00:17:59.221Z,100.00
2022-12-11T00:21:02.410Z,100.00
2022-12-11T00:24:04.361Z,100.00
2022-12-11T00:27:05.968Z,100.00
2022-12-11T00:30:08.042Z,100.00
2022-12-11T00:33:10.675Z,100.00
2022-12-11T00:36:31.116Z,100.00
2022-12-11T00:39:32.726Z,100.00
2022-12-11T00:42:34.533Z,100.00
2022-12-11T00:45:37.948Z,100.00
2022-12-11T00:48:40.043Z,100.00
2022-12-11T00:51:41.723Z,100.00
2022-12-11T00:54:43.400Z,100.00
2022-12-11T00:57:44.996Z,100.00
2022-12-11T01:00:48.353Z,100.00
2022-12-11T01:03:50.898Z,100.00
2022-12-11T01:06:52.561Z,100.00
2022-12-11T01:10:12.636Z,100.00
2022-12-11T01:13:14.536Z,100.00
2022-12-11T01:16:16.439Z,100.00
2022-12-11T01:19:18.086Z,100.00
2022-12-11T01:22:19.727Z,100.00
2022-12-11T01:25:21.777Z,100.00
2022-12-11T01:28:23.432Z,100.00
2022-12-11T01:31:28.261Z,100.00
2022-12-11T01:34:30.976Z,100.00
2022-12-11T01:37:32.832Z,100.00
2022-12-11T01:40:34.422Z,100.00
2022-12-11T01:43:55.929Z,100.00
2022-12-11T01:46:58.379Z,100.00
2022-12-11T01:50:00.138Z,100.00
2022-12-11T01:53:04.218Z,100.00
2022-12-11T01:56:08.268Z,100.00
2022-12-11T01:59:11.202Z,100.00
2022-12-11T02:02:20.976Z,100.00
2022-12-11T02:05:22.808Z,100.00
2022-12-11T02:08:24.459Z,100.00
2022-12-11T02:11:56.926Z,100.00
2022-12-11T02:15:07.908Z,100.00
2022-12-11T02:18:28.603Z,100.00
2022-12-11T02:21:41.875Z,100.00
2022-12-11T02:24:58.007Z,100.00
2022-12-11T02:28:20.447Z,100.00
2022-12-11T02:31:55.990Z,100.00
2022-12-11T02:35:09.767Z,100.00
2022-12-11T02:38:27.816Z,100.00
2022-12-11T02:41:31.533Z,100.00
2022-12-11T02:44:35.578Z,100.00
2022-12-11T02:47:39.167Z,100.00
2022-12-11T02:50:47.474Z,100.00
2022-12-11T02:53:51.691Z,100.00
2022-12-11T02:57:04.801Z,100.00
2022-12-11T03:00:08.657Z,100.00
2022-12-11T03:03:10.283Z,100.00
2022-12-11T03:06:18.440Z,100.00
2022-12-11T03:09:21.018Z,100.00
2022-12-11T03:12:32.812Z,100.00
2022-12-11T03:15:46.940Z,100.00
2022-12-11T03:19:03.879Z,100.00
2022-12-11T03:22:34.052Z,100.00
2022-12-11T03:25:47.080Z,100.00
2022-12-11T03:29:02.794Z,100.00
2022-12-11T03:32:09.546Z,100.00
2022-12-11T03:35:44.950Z,100.00
2022-12-11T03:38:51.025Z,100.00
2022-12-11T03:41:54.844Z,100.00
2022-12-11T03:44:59.271Z,100.00
2022-12-11T03:48:02.786Z,100.00
2022-12-11T03:51:07.616Z,100.00
2022-12-11T03:54:11.192Z,100.00
2022-12-11T03:57:16.653Z,100.00
2022-12-11T04:00:20.198Z,100.00
2022-12-11T04:03:21.893Z,100.00
2022-12-11T04:06:23.509Z,100.00
2022-12-11T04:09:25.134Z,100.00
2022-12-11T04:12:26.879Z,100.00
2022-12-11T04:15:28.527Z,100.00
2022-12-11T04:18:48.669Z,100.00
2022-12-11T04:22:09.240Z,100.00
2022-12-11T04:25:11.200Z,100.00
2022-12-11T04:28:13.110Z,100.00
2022-12-11T04:31:21.277Z,100.00
2022-12-11T04:34:23.271Z,100.00
2022-12-11T04:37:24.914Z,100.00
2022-12-11T04:40:26.616Z,100.00
2022-12-11T04:43:29.003Z,100.00
2022-12-11T04:46:31.259Z,100.00
2022-12-11T04:49:32.930Z,100.00
2022-12-11T04:52:34.562Z,100.00
2022-12-11T04:55:36.148Z,100.00
2022-12-11T04:58:38.086Z,100.00
2022-12-11T05:01:39.730Z,100.00
2022-12-11T05:04:41.524Z,100.00
2022-12-11T05:07:43.631Z,100.00
2022-12-11T05:10:49.998Z,100.00
2022-12-11T05:13:52.081Z,100.00
2022-12-11T05:16:53.702Z,100.00
2022-12-11T05:19:55.395Z,100.00
2022-12-11T05:22:56.988Z,100.00
2022-12-11T05:26:01.079Z,100.00
2022-12-11T05:29:02.720Z,100.00
2022-12-11T05:32:04.915Z,100.00
2022-12-11T05:35:06.843Z,100.00
2022-12-11T05:38:08.432Z,100.00
2022-12-11T05:41:13.741Z,100.00
2022-12-11T05:44:15.357Z,100.00
2022-12-11T05:47:16.984Z,100.00
2022-12-11T05:50:18.572Z,100.00
2022-12-11T05:53:20.175Z,100.00
2022-12-11T05:56:26.432Z,100.00
2022-12-11T05:59:28.054Z,100.00
2022-12-11T06:02:29.801Z,100.00
2022-12-11T06:05:31.436Z,100.00
2022-12-11T06:08:33.807Z,100.00
2022-12-11T06:11:36.169Z,100.00
2022-12-11T06:14:37.789Z,100.00
2022-12-11T06:17:39.365Z,100.00
2022-12-11T06:20:41.004Z,100.00
2022-12-11T06:23:43.584Z,100.00
2022-12-11T06:26:45.273Z,100.00
2022-12-11T06:29:46.872Z,100.00
2022-12-11T06:32:48.532Z,100.00
2022-12-11T06:35:50.189Z,100.00
2022-12-11T06:38:52.584Z,100.00
2022-12-11T06:41:54.367Z,100.00
2022-12-11T06:44:57.482Z,100.00
2022-12-11T06:47:59.131Z,100.00
2022-12-11T06:51:05.706Z,100.00
2022-12-11T06:54:07.336Z,100.00
2022-12-11T06:57:09.835Z,100.00
2022-12-11T07:00:11.999Z,100.00
2022-12-11T07:03:13.834Z,100.00
2022-12-11T07:06:15.879Z,100.00
2022-12-11T07:09:17.498Z,100.00
2022-12-11T07:12:19.136Z,100.00
2022-12-11T07:15:20.880Z,100.00
2022-12-11T07:18:22.491Z,100.00
2022-12-11T07:21:24.598Z,100.00
2022-12-11T07:24:26.330Z,100.00
2022-12-11T07:27:28.496Z,100.00
2022-12-11T07:30:30.681Z,100.00
2022-12-11T07:33:32.373Z,100.00
2022-12-11T07:36:35.193Z,100.00
2022-12-11T07:39:36.944Z,100.00
2022-12-11T07:42:42.911Z,100.00
2022-12-11T07:45:47.831Z,100.00
2022-12-11T07:48:49.750Z,100.00
2022-12-11T07:51:51.370Z,100.00
2022-12-11T07:54:53.028Z,100.00
2022-12-11T07:57:54.633Z,100.00
2022-12-11T08:00:56.345Z,100.00
2022-12-11T08:03:58.477Z,100.00
2022-12-11T08:07:00.132Z,100.00
2022-12-11T08:10:02.419Z,100.00
2022-12-11T08:13:04.043Z,100.00
2022-12-11T08:16:07.782Z,100.00
2022-12-11T08:19:10.794Z,100.00
2022-12-11T08:22:13.335Z,100.00
2022-12-11T08:25:14.959Z,100.00
2022-12-11T08:28:16.610Z,100.00
2022-12-11T08:31:18.759Z,100.00
2022-12-11T08:34:20.410Z,100.00
2022-12-11T08:37:22.026Z,100.00
2022-12-11T08:40:23.855Z,100.00
2022-12-11T08:43:25.910Z,100.00
2022-12-11T08:46:30.524Z,100.00
2022-12-11T08:49:34.637Z,100.00
2022-12-11T08:52:36.456Z,100.00
2022-12-11T08:55:38.109Z,100.00
2022-12-11T08:58:39.854Z,100.00
2022-12-11T09:01:42.013Z,100.00
2022-12-11T09:04:43.659Z,100.00
2022-12-11T09:07:45.688Z,100.00
2022-12-11T09:10:47.389Z,100.00
2022-12-11T09:13:49.454Z,100.00
2022-12-11T09:16:51.066Z,100.00
2022-12-11T09:19:52.701Z,100.00
2022-12-11T09:22:54.319Z,100.00
2022-12-11T09:25:56.081Z,100.00
2022-12-11T09:28:58.584Z,100.00
2022-12-11T09:32:00.247Z,100.00
2022-12-11T09:35:01.904Z,100.00
2022-12-11T09:38:03.628Z,100.00
2022-12-11T09:41:35.123Z,100.00
2022-12-11T09:44:51.533Z,100.00
2022-12-11T09:47:56.649Z,100.00
2022-12-11T09:50:58.357Z,100.00
2022-12-11T09:54:02.314Z,100.00
2022-12-11T09:57:19.069Z,100.00
2022-12-11T10:00:27.584Z,100.00
2022-12-11T10:03:44.580Z,100.00
2022-12-11T10:06:54.437Z,100.00
2022-12-11T10:10:01.212Z,100.00
2022-12-11T10:13:14.930Z,100.00
2022-12-11T10:16:38.464Z,100.00
2022-12-11T10:19:41.501Z,100.00
2022-12-11T10:22:44.382Z,100.00
2022-12-11T10:26:15.264Z,100.00
2022-12-11T10:29:17.221Z,100.00
2022-12-11T10:32:26.593Z,100.00
2022-12-11T10:35:39.883Z,100.00
2022-12-11T10:38:45.572Z,100.00
2022-12-11T10:41:49.955Z,100.00
2022-12-11T10:45:00.976Z,100.00
2022-12-11T10:48:09.615Z,100.00
2022-12-11T10:51:11.813Z,100.00
2022-12-11T10:54:38.274Z,100.00
2022-12-11T10:57:40.045Z,100.00
2022-12-11T11:00:42.454Z,100.00
2022-12-11T11:03:55.058Z,100.00
2022-12-11T11:07:15.220Z,100.00
2022-12-11T11:10:18.128Z,100.00
2022-12-11T11:13:22.552Z,100.00
2022-12-11T11:16:25.403Z,100.00
2022-12-11T11:19:31.108Z,100.00
2022-12-11T11:22:32.933Z,100.00
2022-12-11T11:25:34.905Z,100.00
2022-12-11T11:28:40.778Z,100.00
2022-12-11T11:31:42.540Z,99.48
2022-12-11T11:34:44.179Z,100.00
2022-12-11T11:38:07.285Z,100.00
2022-12-11T11:41:34.311Z,100.00
2022-12-11T11:44:47.671Z,100.00
2022-12-11T11:48:11.311Z,100.00
2022-12-11T11:51:15.865Z,100.00
2022-12-11T11:54:34.946Z,100.00
2022-12-11T11:57:55.227Z,100.00
2022-12-11T12:00:56.817Z,100.00
2022-12-11T12:03:59.070Z,100.00
2022-12-11T12:07:22.232Z,100.00
2022-12-11T12:10:31.960Z,100.00
2022-12-11T12:14:43.723Z,99.02
2022-12-11T12:17:42.900Z,99.63
2022-12-11T12:21:04.493Z,99.87
2022-12-11T12:24:25.381Z,99.99
2022-12-11T12:27:53.041Z,100.00
2022-12-11T12:31:29.498Z,99.30
2022-12-11T12:34:43.567Z,99.71
2022-12-11T12:37:58.695Z,99.60
2022-12-11T12:41:14.064Z,100.00
2022-12-11T12:44:18.850Z,100.00
2022-12-11T12:47:21.920Z,100.00
2022-12-11T12:50:27.224Z,100.00
2022-12-11T12:53:33.604Z,100.00
2022-12-11T12:56:37.477Z,100.00
2022-12-11T12:59:39.078Z,100.00
2022-12-11T13:02:51.723Z,99.95
2022-12-11T13:06:03.304Z,100.00
2022-12-11T13:09:23.918Z,100.00
2022-12-11T13:12:41.849Z,100.00
2022-12-11T13:15:43.971Z,100.00
2022-12-11T13:18:49.225Z,100.00
2022-12-11T13:21:56.695Z,100.00
2022-12-11T13:25:01.942Z,100.00
2022-12-11T13:28:26.157Z,100.00
2022-12-11T13:31:37.344Z,100.00
2022-12-11T13:34:45.325Z,100.00
2022-12-11T13:37:49.970Z,100.00
2022-12-11T13:40:55.759Z,100.00
2022-12-11T13:43:58.140Z,100.00
2022-12-11T13:47:03.789Z,100.00
2022-12-11T13:50:20.978Z,100.00
2022-12-11T13:53:23.972Z,100.00
2022-12-11T13:56:25.866Z,100.00
2022-12-11T13:59:34.300Z,100.00
2022-12-11T14:02:42.649Z,100.00
2022-12-11T14:05:44.642Z,100.00
2022-12-11T14:08:50.206Z,100.00
2022-12-11T14:11:56.754Z,100.00
2022-12-11T14:15:02.381Z,100.00
2022-12-11T14:18:05.601Z,100.00
2022-12-11T14:21:07.521Z,100.00
2022-12-11T14:24:14.315Z,100.00
2022-12-11T14:27:18.776Z,100.00
2022-12-11T14:30:26.247Z,100.00
2022-12-11T14:33:41.102Z,100.00
2022-12-11T14:36:46.790Z,99.68
2022-12-11T14:40:16.071Z,99.85
2022-12-11T14:43:30.682Z,98.75
2022-12-11T14:46:45.681Z,98.19
2022-12-11T14:49:47.227Z,100.00
2022-12-11T14:53:02.874Z,100.00
2022-12-11T14:56:16.347Z,100.00
2022-12-11T14:59:26.900Z,99.26
2022-12-11T15:02:33.724Z,99.16
2022-12-11T15:05:40.581Z,98.59
2022-12-11T15:08:42.737Z,98.79
2022-12-11T15:11:45.335Z,98.78
2022-12-11T15:15:00.939Z,99.66
2022-12-11T15:18:07.862Z,99.02
2022-12-11T15:21:12.266Z,99.33
2022-12-11T15:24:28.419Z,99.60
2022-12-11T15:27:40.181Z,98.97
2022-12-11T15:30:42.064Z,100.00
2022-12-11T15:33:50.285Z,99.70
2022-12-11T15:36:51.999Z,100.00
2022-12-11T15:39:55.239Z,100.00
2022-12-11T15:42:58.351Z,99.40
2022-12-11T15:46:02.670Z,100.00
2022-12-11T15:49:12.720Z,99.74
2022-12-11T15:52:14.466Z,100.00
2022-12-11T15:55:16.641Z,99.02
2022-12-11T15:58:24.455Z,100.00
2022-12-11T16:01:26.541Z,100.00
2022-12-11T16:04:28.804Z,98.67
2022-12-11T16:07:30.621Z,99.92
2022-12-11T16:10:32.690Z,98.29
2022-12-11T16:13:34.759Z,98.55
2022-12-11T16:16:36.456Z,98.46
2022-12-11T16:19:38.476Z,98.99
2022-12-11T16:22:40.411Z,100.00
2022-12-11T16:25:45.834Z,100.00
2022-12-11T16:28:48.184Z,100.00
2022-12-11T16:31:50.461Z,100.00
2022-12-11T16:34:52.690Z,100.00
2022-12-11T16:37:55.319Z,100.00
2022-12-11T16:41:01.382Z,100.00
2022-12-11T16:44:03.776Z,100.00
2022-12-11T16:47:05.548Z,100.00
2022-12-11T16:50:08.175Z,99.91
2022-12-11T16:53:10.236Z,98.66
2022-12-11T16:56:11.987Z,99.32
2022-12-11T16:59:15.240Z,99.92
2022-12-11T17:02:18.029Z,99.92
2022-12-11T17:05:20.797Z,99.10
2022-12-11T17:08:22.860Z,99.81
2022-12-11T17:11:29.492Z,100.00
2022-12-11T17:14:34.150Z,100.00
2022-12-11T17:17:36.224Z,100.00
2022-12-11T17:20:42.168Z,100.00
2022-12-11T17:23:45.162Z,100.00
2022-12-11T17:26:48.569Z,99.90
2022-12-11T17:29:50.878Z,100.00
2022-12-11T17:32:52.841Z,100.00
2022-12-11T17:35:55.073Z,99.99
2022-12-11T17:38:57.501Z,98.24
2022-12-11T17:41:59.807Z,98.73
2022-12-11T17:45:04.077Z,98.35
2022-12-11T17:48:06.285Z,98.53
2022-12-11T17:51:11.757Z,97.92
2022-12-11T17:54:14.325Z,98.05
2022-12-11T17:57:16.077Z,97.70
2022-12-11T18:00:18.272Z,97.91
2022-12-11T18:03:20.983Z,96.66
2022-12-11T18:06:24.558Z,97.81
2022-12-11T18:09:26.213Z,98.20
2022-12-11T18:12:28.201Z,96.80
2022-12-11T18:15:31.461Z,98.32
2022-12-11T18:18:35.582Z,98.52
2022-12-11T18:21:41.791Z,96.97
2022-12-11T18:24:44.073Z,93.66
2022-12-11T18:27:47.070Z,95.05
2022-12-11T18:30:49.397Z,95.58
2022-12-11T18:33:52.092Z,97.06
2022-12-11T18:36:54.547Z,97.74
2022-12-11T18:39:56.764Z,99.01
2022-12-11T18:42:58.904Z,99.56
2022-12-11T18:46:02.214Z,97.71
2022-12-11T18:49:04.638Z,94.59
2022-12-11T18:52:07.339Z,94.27
2022-12-11T18:55:10.212Z,93.54
2022-12-11T18:58:14.666Z,95.06
2022-12-11T19:01:24.188Z,95.86
2022-12-11T19:04:26.230Z,95.30
2022-12-11T19:07:28.750Z,95.27
2022-12-11T19:10:31.256Z,94.35
2022-12-11T19:13:34.849Z,95.26
2022-12-11T19:16:41.368Z,94.10
2022-12-11T19:19:46.685Z,94.35
2022-12-11T19:22:49.094Z,93.91
2022-12-11T19:25:51.628Z,94.18
2022-12-11T19:28:54.378Z,94.30
2022-12-11T19:31:57.337Z,93.52
2022-12-11T19:35:00.696Z,94.58
2022-12-11T19:38:02.881Z,95.08
2022-12-11T19:41:14.343Z,95.80
2022-12-11T19:44:17.532Z,96.71
2022-12-11T19:47:20.695Z,97.06
2022-12-11T19:50:23.197Z,97.60
2022-12-11T19:53:25.526Z,97.49
2022-12-11T19:56:28.301Z,98.37
2022-12-11T19:59:30.984Z,97.61
2022-12-11T20:02:33.206Z,97.59
2022-12-11T20:05:36.069Z,97.44
2022-12-11T20:08:46.297Z,97.16
2022-12-11T20:11:49.667Z,98.36
2022-12-11T20:14:53.440Z,98.47
2022-12-11T20:17:58.169Z,97.08
2022-12-11T20:21:01.320Z,96.74
2022-12-11T20:24:03.882Z,96.86
2022-12-11T20:27:08.225Z,97.45
2022-12-11T20:30:10.976Z,95.66
2022-12-11T20:33:13.249Z,96.84
2022-12-11T20:36:17.485Z,96.57
2022-12-11T20:39:20.216Z,97.18
2022-12-11T20:42:23.369Z,97.08
2022-12-11T20:45:25.852Z,97.89
2022-12-11T20:48:28.269Z,96.88
2022-12-11T20:51:32.863Z,97.16
2022-12-11T20:54:35.209Z,95.46
2022-12-11T20:57:41.992Z,95.80
2022-12-11T21:00:48.251Z,95.40
2022-12-11T21:03:50.542Z,94.97
2022-12-11T21:07:02.428Z,95.00
2022-12-11T21:10:05.820Z,93.64
2022-12-11T21:13:07.794Z,92.94
2022-12-11T21:16:10.671Z,92.06
2022-12-11T21:19:17.053Z,91.98
2022-12-11T21:22:19.380Z,91.96
2022-12-11T21:25:21.115Z,91.14
2022-12-11T21:28:24.330Z,91.14
2022-12-11T21:31:27.653Z,92.21
2022-12-11T21:34:29.842Z,92.35
2022-12-11T21:37:31.943Z,93.83
2022-12-11T21:40:34.179Z,94.52
2022-12-11T21:43:35.792Z,94.09
2022-12-11T21:46:37.903Z,94.40
2022-12-11T21:49:39.575Z,94.94
2022-12-11T21:52:41.208Z,94.44
2022-12-11T21:55:42.873Z,94.54
2022-12-11T21:58:45.253Z,92.48
2022-12-11T22:01:47.126Z,92.94
2022-12-11T22:04:48.788Z,94.76
2022-12-11T22:07:50.481Z,94.89
2022-12-11T22:10:52.209Z,96.85
2022-12-11T22:13:54.460Z,97.59
2022-12-11T22:16:56.128Z,98.25
2022-12-11T22:19:57.785Z,99.33
2022-12-11T22:22:59.522Z,100.00
2022-12-11T22:26:01.317Z,100.00
2022-12-11T22:29:03.615Z,100.00
2022-12-11T22:32:05.362Z,100.00
2022-12-11T22:35:07.391Z,100.00
2022-12-11T22:38:09.083Z,100.00
2022-12-11T22:41:16.349Z,100.00
2022-12-11T22:44:22.209Z,100.00
2022-12-11T22:47:23.947Z,100.00
2022-12-11T22:50:25.550Z,100.00
2022-12-11T22:53:27.170Z,100.00
2022-12-11T22:56:28.827Z,100.00
2022-12-11T22:59:30.432Z,100.00
2022-12-11T23:02:32.075Z,100.00
2022-12-11T23:05:33.720Z,100.00
2022-12-11T23:08:35.759Z,100.00
2022-12-11T23:11:38.460Z,100.00
2022-12-11T23:14:40.124Z,100.00
2022-12-11T23:17:41.768Z,100.00
2022-12-11T23:20:43.723Z,100.00
2022-12-11T23:23:45.574Z,100.00
2022-12-11T23:26:48.180Z,100.00
2022-12-11T23:29:49.890Z,100.00
2022-12-11T23:32:51.497Z,100.00
2022-12-11T23:35:53.131Z,100.00
2022-12-11T23:38:55.292Z,100.00
2022-12-11T23:41:57.122Z,100.00
2022-12-11T23:44:58.787Z,100.00
2022-12-11T23:48:00.461Z,100.00
2022-12-11T23:51:04.364Z,100.00
2022-12-11T23:54:05.997Z,100.00
2022-12-11T23:57:07.601Z,100.00
